Time;durP1;ratioP1;P1;durP2;ratioP2;P2;SDS_P1;SDS_P2;PMS_P1;PMS_P2;Temp;Humidity;BMP_temperature;BMP_pressure;BME280_temperature;BME280_humidity;BME280_pressure;Samples;Min_cycle;Max_cycle;Signal;HPM_P1;HPM_P2
2023/09/02 00:00:03;;;;;;;4.20;2.20;;;16.10;99.50;;;;;;5055849;28;20489;-77
2023/09/02 00:02:30;;;;;;;4.30;3.17;;;16.10;99.70;;;;;;5055323;28;20434;-77
2023/09/02 00:04:56;;;;;;;5.27;3.40;;;16.20;99.90;;;;;;5055689;28;20465;-78
2023/09/02 00:07:24;;;;;;;5.90;3.10;;;16.20;99.60;;;;;;5073251;28;20464;-77
2023/09/02 00:09:50;;;;;;;4.67;3.00;;;16.20;99.60;;;;;;5075682;28;20848;-77
2023/09/02 00:12:17;;;;;;;3.33;2.23;;;16.20;99.60;;;;;;5075142;28;20490;-77
2023/09/02 00:14:44;;;;;;;3.67;2.50;;;16.20;99.70;;;;;;5075496;28;20861;-77
2023/09/02 00:17:13;;;;;;;4.57;2.10;;;16.20;99.70;;;;;;5058310;28;20556;-77
2023/09/02 00:19:40;;;;;;;5.40;2.37;;;16.20;99.90;;;;;;5055586;28;20525;-77
2023/09/02 00:22:07;;;;;;;2.83;1.87;;;16.10;99.90;;;;;;5055086;28;20491;-78
2023/09/02 00:24:34;;;;;;;5.83;2.57;;;16.10;99.90;;;;;;5055274;28;20472;-77
2023/09/02 00:27:01;;;;;;;3.47;2.20;;;16.20;99.40;;;;;;5055203;28;20437;-77
2023/09/02 00:29:28;;;;;;;3.87;2.20;;;16.10;99.10;;;;;;5055140;28;20469;-77
2023/09/02 00:31:56;;;;;;;4.87;3.13;;;16.00;98.80;;;;;;5052163;28;20441;-77
2023/09/02 00:34:25;;;;;;;3.63;2.30;;;16.00;99.10;;;;;;5055105;28;20433;-77
2023/09/02 00:36:52;;;;;;;4.17;2.40;;;15.90;99.20;;;;;;5054323;28;20556;-78
2023/09/02 00:39:19;;;;;;;3.80;2.40;;;15.90;99.20;;;;;;5034588;28;20477;-77
2023/09/02 00:41:50;;;;;;;9.50;2.77;;;15.80;99.10;;;;;;5035047;28;20500;-78
2023/09/02 00:44:17;;;;;;;3.87;3.20;;;15.70;99.00;;;;;;5035181;28;20461;-77
2023/09/02 00:46:44;;;;;;;4.13;2.50;;;15.70;99.60;;;;;;5034911;28;20442;-77
2023/09/02 00:49:12;;;;;;;3.70;2.30;;;15.80;99.90;;;;;;5048504;28;20473;-77
2023/09/02 00:51:40;;;;;;;4.43;2.57;;;15.70;99.80;;;;;;5054651;28;20461;-77
2023/09/02 00:54:08;;;;;;;5.30;2.77;;;15.70;99.90;;;;;;5054408;28;20950;-77
2023/09/02 00:56:37;;;;;;;6.50;3.00;;;15.70;99.90;;;;;;5054787;28;20429;-77
2023/09/02 00:59:05;;;;;;;3.40;2.33;;;15.80;99.90;;;;;;5062095;28;20495;-78
2023/09/02 01:01:34;;;;;;;5.50;2.60;;;15.80;99.90;;;;;;5074490;28;20424;-77
2023/09/02 01:04:03;;;;;;;8.67;2.43;;;15.80;99.90;;;;;;5074247;28;20435;-77
2023/09/02 01:06:30;;;;;;;5.03;2.40;;;15.80;99.90;;;;;;5073301;28;20441;-77
2023/09/02 01:09:00;;;;;;;5.40;2.70;;;15.80;99.90;;;;;;5060892;28;20432;-77
2023/09/02 01:11:27;;;;;;;4.03;2.90;;;15.70;99.90;;;;;;5074408;28;20460;-77
2023/09/02 01:13:54;;;;;;;3.93;2.43;;;15.70;99.90;;;;;;5072408;28;20440;-77
2023/09/02 01:16:21;;;;;;;3.50;2.40;;;15.70;99.90;;;;;;5073947;28;20482;-77
2023/09/02 01:18:48;;;;;;;3.70;2.30;;;15.60;99.90;;;;;;5068620;28;20880;-77
2023/09/02 01:21:31;;;;;;;6.50;2.87;;;15.60;99.90;;;;;;5053688;28;20441;-78
2023/09/02 01:24:25;;;;;;;7.80;3.87;;;15.60;99.90;;;;;;5060744;28;20506;-77
2023/09/02 01:27:20;;;;;;;7.60;4.07;;;15.60;99.90;;;;;;5068462;28;20433;-77
2023/09/02 01:29:53;;;;;;;5.97;2.93;;;15.60;99.90;;;;;;5063968;28;20437;-77
2023/09/02 01:32:21;;;;;;;7.13;3.17;;;15.50;99.90;;;;;;5053725;28;20425;-77
2023/09/02 01:34:48;;;;;;;5.10;2.50;;;15.50;99.90;;;;;;5053609;28;20916;-77
2023/09/02 01:37:18;;;;;;;5.17;2.73;;;15.50;99.90;;;;;;5053779;28;20577;-77
2023/09/02 01:39:47;;;;;;;5.53;2.50;;;15.50;99.90;;;;;;5055276;28;20460;-77
2023/09/02 01:42:16;;;;;;;4.20;2.93;;;15.50;99.90;;;;;;5068533;28;20424;-77
2023/09/02 01:44:45;;;;;;;5.43;3.43;;;15.50;99.90;;;;;;5033070;28;20437;-77
2023/09/02 01:47:13;;;;;;;4.40;3.00;;;15.40;99.90;;;;;;5033823;28;20445;-77
2023/09/02 01:49:40;;;;;;;5.80;2.27;;;15.40;99.90;;;;;;5035648;28;20438;-77
2023/09/02 01:52:08;;;;;;;4.33;3.33;;;15.50;99.90;;;;;;5072557;28;20949;-77
2023/09/02 01:54:36;;;;;;;3.50;2.27;;;15.40;99.90;;;;;;5073377;28;20431;-77
2023/09/02 01:57:03;;;;;;;5.83;2.50;;;15.40;99.90;;;;;;5073282;28;20435;-77
2023/09/02 01:59:30;;;;;;;3.33;2.27;;;15.40;99.90;;;;;;5073094;28;20460;-77
2023/09/02 02:02:00;;;;;;;3.20;2.33;;;15.30;99.90;;;;;;5072767;28;20999;-76
2023/09/02 02:04:34;;;;;;;4.50;2.23;;;15.30;99.90;;;;;;5073182;28;20478;-77
2023/09/02 02:07:06;;;;;;;4.07;2.20;;;15.20;99.90;;;;;;5073150;28;20434;-77
2023/09/02 02:09:37;;;;;;;3.53;1.90;;;15.20;99.90;;;;;;5073410;28;20473;-77
2023/09/02 02:12:05;;;;;;;3.40;2.50;;;15.20;99.90;;;;;;5037698;28;20435;-77
2023/09/02 02:14:32;;;;;;;3.87;2.27;;;15.20;99.90;;;;;;5053023;28;20981;-77
2023/09/02 02:17:03;;;;;;;7.73;2.20;;;15.10;99.90;;;;;;5053055;28;20520;-77
2023/09/02 02:19:30;;;;;;;4.37;2.63;;;15.10;99.90;;;;;;5053061;28;20915;-77
2023/09/02 02:21:58;;;;;;;10.50;2.53;;;15.00;99.90;;;;;;5072256;28;20439;-76
2023/09/02 02:24:25;;;;;;;3.80;2.30;;;15.10;99.90;;;;;;5073346;28;20459;-77
2023/09/02 02:26:52;;;;;;;4.73;2.73;;;15.00;99.90;;;;;;5073425;28;20432;-77
2023/09/02 02:29:19;;;;;;;4.60;3.10;;;15.00;99.90;;;;;;5073293;28;20942;-77
2023/09/02 02:31:46;;;;;;;4.30;2.67;;;14.90;99.90;;;;;;5070347;28;20444;-77
2023/09/02 02:34:15;;;;;;;4.33;2.50;;;14.90;99.90;;;;;;5073211;28;20450;-77
2023/09/02 02:36:42;;;;;;;4.10;2.40;;;14.90;99.90;;;;;;5072872;28;20906;-77
2023/09/02 02:39:09;;;;;;;5.17;2.70;;;14.90;99.90;;;;;;5072250;28;20481;-77
2023/09/02 02:41:36;;;;;;;5.10;2.87;;;14.80;99.90;;;;;;5057201;28;20475;-78
2023/09/02 02:44:04;;;;;;;3.70;2.57;;;14.80;99.90;;;;;;5053103;28;20923;-77
2023/09/02 02:46:31;;;;;;;6.30;2.77;;;14.80;99.90;;;;;;5053253;28;20429;-77
2023/09/02 02:48:58;;;;;;;4.47;2.57;;;14.80;99.90;;;;;;5052796;28;20934;-77
2023/09/02 02:51:27;;;;;;;4.27;2.70;;;14.80;99.90;;;;;;5066012;28;20440;-77
2023/09/02 02:53:57;;;;;;;4.73;2.70;;;14.90;99.90;;;;;;5073229;28;20469;-77
2023/09/02 02:56:24;;;;;;;4.47;2.60;;;14.90;99.90;;;;;;5074705;28;20454;-77
2023/09/02 02:58:52;;;;;;;4.90;2.87;;;14.90;99.90;;;;;;5076596;28;20571;-77
2023/09/02 03:01:19;;;;;;;7.07;2.80;;;14.80;99.90;;;;;;5071289;28;20938;-77
2023/09/02 03:03:49;;;;;;;4.13;2.60;;;14.90;99.90;;;;;;5077012;28;20439;-77
2023/09/02 03:06:18;;;;;;;5.80;2.57;;;14.80;99.90;;;;;;5076566;28;20447;-77
2023/09/02 03:08:47;;;;;;;4.47;2.70;;;14.80;99.90;;;;;;5076686;28;20483;-77
2023/09/02 03:11:14;;;;;;;5.07;3.30;;;14.80;99.90;;;;;;5063168;28;20440;-77
2023/09/02 03:13:41;;;;;;;5.47;3.03;;;14.70;99.90;;;;;;5056620;28;20444;-77
2023/09/02 03:16:08;;;;;;;3.90;2.33;;;14.80;99.90;;;;;;5056221;28;20434;-77
2023/09/02 03:18:35;;;;;;;6.77;3.20;;;14.80;99.90;;;;;;5056401;28;20475;-77
2023/09/02 03:21:06;;;;;;;4.17;2.90;;;14.70;99.90;;;;;;5066950;28;20504;-77
2023/09/02 03:23:34;;;;;;;5.13;2.90;;;14.70;99.90;;;;;;5076554;28;20432;-77
2023/09/02 03:26:09;;;;;;;4.50;2.80;;;14.60;99.90;;;;;;5076066;28;20516;-77
2023/09/02 03:28:36;;;;;;;7.60;3.20;;;14.60;99.90;;;;;;5076059;28;20416;-77
2023/09/02 03:31:07;;;;;;;11.53;2.60;;;14.50;99.90;;;;;;5064527;28;20452;-77
2023/09/02 03:33:35;;;;;;;6.30;3.20;;;14.50;99.90;;;;;;5071574;28;20443;-77
2023/09/02 03:36:03;;;;;;;4.07;3.20;;;14.50;99.90;;;;;;5075782;28;20774;-77
2023/09/02 03:38:30;;;;;;;4.43;3.00;;;14.50;99.90;;;;;;5076198;28;20482;-77
2023/09/02 03:40:58;;;;;;;6.30;3.97;;;14.50;99.90;;;;;;5076224;28;20447;-77
2023/09/02 03:43:26;;;;;;;5.73;3.40;;;14.40;99.90;;;;;;5062726;28;20443;-78
2023/09/02 03:45:57;;;;;;;4.80;3.37;;;14.40;99.90;;;;;;5055593;28;20523;-77
2023/09/02 03:48:24;;;;;;;5.13;3.77;;;14.30;99.90;;;;;;5056064;28;20433;-77
2023/09/02 03:51:03;;;;;;;5.97;4.40;;;14.30;99.90;;;;;;5056050;28;20434;-77
2023/09/02 03:53:31;;;;;;;5.33;3.63;;;14.30;99.90;;;;;;5068632;28;20478;-77
2023/09/02 03:56:00;;;;;;;4.97;3.17;;;14.30;99.90;;;;;;5075591;28;20922;-77
2023/09/02 03:58:29;;;;;;;4.53;3.10;;;14.30;99.90;;;;;;5075263;28;20490;-77
2023/09/02 04:00:57;;;;;;;4.43;3.20;;;14.30;99.90;;;;;;5075673;28;20465;-77
2023/09/02 04:03:24;;;;;;;4.50;3.43;;;14.30;99.90;;;;;;5062698;28;20446;-79
2023/09/02 04:05:51;;;;;;;3.93;3.30;;;14.30;99.90;;;;;;5055350;28;20452;-77
2023/09/02 04:08:20;;;;;;;5.53;3.60;;;14.30;99.90;;;;;;5054772;28;20440;-77
2023/09/02 04:10:52;;;;;;;3.80;2.80;;;14.30;99.90;;;;;;5055649;28;20525;-77
2023/09/02 04:13:19;;;;;;;3.97;2.73;;;14.20;99.90;;;;;;5066515;28;20469;-77
2023/09/02 04:15:48;;;;;;;6.93;3.03;;;14.30;99.90;;;;;;5075175;28;20440;-77
2023/09/02 04:18:15;;;;;;;10.30;4.37;;;14.20;99.90;;;;;;5075294;28;20524;-77
2023/09/02 04:20:42;;;;;;;4.37;3.50;;;14.20;99.90;;;;;;5074993;28;20492;-79
2023/09/02 04:23:09;;;;;;;3.57;2.57;;;14.10;99.90;;;;;;5065181;28;20439;-77
2023/09/02 04:25:45;;;;;;;3.80;2.50;;;14.10;99.90;;;;;;5055385;28;20483;-77
2023/09/02 04:28:12;;;;;;;4.90;2.50;;;14.10;99.90;;;;;;5055436;28;20499;-77
2023/09/02 04:30:39;;;;;;;3.63;2.13;;;14.10;99.90;;;;;;5055144;28;20513;-78
2023/09/02 04:33:08;;;;;;;3.50;2.27;;;14.00;99.90;;;;;;5063947;28;20470;-77
2023/09/02 04:35:41;;;;;;;2.77;1.90;;;14.00;99.90;;;;;;5074999;28;20466;-77
2023/09/02 04:38:09;;;;;;;5.37;3.70;;;14.00;99.90;;;;;;5075269;28;20563;-77
2023/09/02 04:40:37;;;;;;;6.07;3.40;;;14.00;99.90;;;;;;5071994;28;20484;-77
2023/09/02 04:43:08;;;;;;;6.63;3.70;;;14.00;99.90;;;;;;5062797;28;20526;-77
2023/09/02 04:45:35;;;;;;;6.47;3.70;;;13.90;99.90;;;;;;5074712;28;20475;-77
2023/09/02 04:48:03;;;;;;;8.43;3.00;;;13.90;99.90;;;;;;5074563;28;20460;-77
2023/09/02 04:50:32;;;;;;;4.23;3.00;;;14.00;99.90;;;;;;5074458;28;20435;-77
2023/09/02 04:53:01;;;;;;;4.30;2.77;;;13.90;99.90;;;;;;5066381;28;20506;-77
2023/09/02 04:55:28;;;;;;;4.20;2.90;;;14.00;99.90;;;;;;5054208;28;20972;-77
2023/09/02 04:57:57;;;;;;;5.20;2.77;;;14.00;99.90;;;;;;5053914;28;20515;-77
2023/09/02 05:00:24;;;;;;;5.93;2.90;;;14.00;99.90;;;;;;5054465;28;20474;-77
2023/09/02 05:02:52;;;;;;;4.70;2.60;;;14.00;99.90;;;;;;5060194;28;21004;-77
2023/09/02 05:05:20;;;;;;;5.50;2.40;;;14.00;99.90;;;;;;5073435;28;20932;-77
2023/09/02 05:07:49;;;;;;;3.57;2.10;;;14.00;99.90;;;;;;5074163;28;20444;-78
2023/09/02 05:10:17;;;;;;;5.00;2.43;;;14.00;99.90;;;;;;5074209;28;20476;-77
2023/09/02 05:12:44;;;;;;;5.70;2.73;;;14.10;99.90;;;;;;5068025;28;20498;-77
2023/09/02 05:15:12;;;;;;;2.90;1.93;;;14.10;99.90;;;;;;5053956;28;20435;-77
2023/09/02 05:17:39;;;;;;;3.37;2.23;;;14.20;99.90;;;;;;5053638;28;20432;-77
2023/09/02 05:20:07;;;;;;;4.03;2.40;;;14.20;99.90;;;;;;5053049;28;20473;-78
2023/09/02 05:22:35;;;;;;;4.90;2.20;;;14.20;99.90;;;;;;5057226;28;20492;-78
2023/09/02 05:25:04;;;;;;;3.93;2.53;;;14.20;99.90;;;;;;5074106;28;20797;-77
2023/09/02 05:27:32;;;;;;;4.43;2.60;;;14.30;99.90;;;;;;5074225;28;20534;-77
2023/09/02 05:29:59;;;;;;;4.00;2.50;;;14.30;99.90;;;;;;5073864;28;20431;-77
2023/09/02 05:32:31;;;;;;;4.70;2.03;;;14.30;99.90;;;;;;5071288;28;20451;-77
2023/09/02 05:34:58;;;;;;;3.90;2.23;;;14.30;99.90;;;;;;5053625;28;20431;-77
2023/09/02 05:37:25;;;;;;;3.67;2.30;;;14.40;99.90;;;;;;5053609;28;20772;-77
2023/09/02 05:39:52;;;;;;;4.53;2.40;;;14.50;99.90;;;;;;5053913;28;20489;-77
2023/09/02 05:42:20;;;;;;;3.40;1.70;;;14.60;99.90;;;;;;5054371;28;20444;-77
2023/09/02 05:44:47;;;;;;;2.93;2.00;;;14.60;99.90;;;;;;5073350;28;20451;-77
2023/09/02 05:47:14;;;;;;;4.50;2.20;;;14.70;99.90;;;;;;5073564;28;20442;-78
2023/09/02 05:49:42;;;;;;;4.40;2.43;;;14.70;99.90;;;;;;5073239;28;20441;-77
2023/09/02 05:52:09;;;;;;;4.17;2.23;;;14.80;99.90;;;;;;5072839;28;20439;-78
2023/09/02 05:54:36;;;;;;;4.30;2.70;;;14.90;99.90;;;;;;5053530;28;20530;-77
2023/09/02 05:57:03;;;;;;;4.47;2.60;;;15.00;99.90;;;;;;5053209;28;20927;-78
2023/09/02 05:59:31;;;;;;;4.67;3.67;;;15.10;99.90;;;;;;5052936;28;20489;-77
2023/09/02 06:02:04;;;;;;;5.90;2.80;;;15.30;99.90;;;;;;5053292;28;20430;-77
2023/09/02 06:04:30;;;;;;;4.07;2.60;;;15.40;99.90;;;;;;5071519;28;20436;-77
2023/09/02 06:06:57;;;;;;;4.60;3.07;;;15.50;99.90;;;;;;5072531;28;20437;-77
2023/09/02 06:09:26;;;;;;;5.20;3.50;;;15.70;99.90;;;;;;5073365;28;20441;-77
2023/09/02 06:11:54;;;;;;;4.10;2.10;;;15.90;99.90;;;;;;5073670;28;20454;-77
2023/09/02 06:14:21;;;;;;;4.33;2.70;;;16.00;99.90;;;;;;5055451;28;20469;-77
2023/09/02 06:16:51;;;;;;;5.70;2.83;;;16.20;99.90;;;;;;5052890;28;21057;-77
2023/09/02 06:19:18;;;;;;;3.60;2.30;;;16.30;99.90;;;;;;5053044;28;20504;-77
2023/09/02 06:21:50;;;;;;;4.33;2.23;;;16.40;99.90;;;;;;5052992;28;20490;-77
2023/09/02 06:24:17;;;;;;;4.43;2.50;;;16.50;99.90;;;;;;5068613;28;20429;-77
2023/09/02 06:26:44;;;;;;;4.77;2.20;;;16.70;99.90;;;;;;5073294;28;20479;-77
2023/09/02 06:29:11;;;;;;;5.10;2.60;;;16.80;99.90;;;;;;5072831;28;20494;-77
2023/09/02 06:31:38;;;;;;;4.70;2.30;;;17.00;99.90;;;;;;5076880;28;20432;-77
2023/09/02 06:34:06;;;;;;;3.23;2.00;;;17.10;99.90;;;;;;5062099;28;20447;-77
2023/09/02 06:36:36;;;;;;;5.17;2.73;;;17.30;99.90;;;;;;5057056;28;20425;-77
2023/09/02 06:39:04;;;;;;;3.63;2.77;;;17.40;99.90;;;;;;5056918;28;20507;-77
2023/09/02 06:41:32;;;;;;;3.37;2.43;;;17.60;99.90;;;;;;5055493;28;21007;-77
2023/09/02 06:43:59;;;;;;;5.40;2.30;;;17.80;99.90;;;;;;5056737;28;20524;-77
2023/09/02 06:46:31;;;;;;;4.00;2.83;;;17.90;99.90;;;;;;5056755;28;20441;-77
2023/09/02 06:48:59;;;;;;;5.03;2.30;;;18.10;99.90;;;;;;5057025;28;20782;-77
2023/09/02 06:51:27;;;;;;;3.97;2.03;;;18.20;99.90;;;;;;5056274;28;21024;-76
2023/09/02 06:53:55;;;;;;;3.20;2.17;;;18.50;99.90;;;;;;5073493;28;20498;-77
2023/09/02 06:56:22;;;;;;;5.80;2.30;;;18.70;99.90;;;;;;5076464;28;20534;-77
2023/09/02 06:58:50;;;;;;;3.70;2.00;;;18.90;99.90;;;;;;5076734;28;20484;-77
2023/09/02 07:01:21;;;;;;;3.47;2.50;;;19.10;99.90;;;;;;5076658;28;20497;-77
2023/09/02 07:03:51;;;;;;;6.57;2.40;;;19.30;99.40;;;;;;5060209;28;20433;-77
2023/09/02 07:06:19;;;;;;;3.83;2.30;;;19.50;99.00;;;;;;5056208;28;20441;-77
2023/09/02 07:08:48;;;;;;;3.30;1.90;;;19.70;98.30;;;;;;5056418;28;20437;-78
2023/09/02 07:11:15;;;;;;;3.50;2.10;;;19.90;97.70;;;;;;5056461;28;20429;-76
2023/09/02 07:13:45;;;;;;;4.23;2.67;;;20.20;96.90;;;;;;5070495;28;20553;-76
2023/09/02 07:16:14;;;;;;;4.53;2.10;;;20.60;95.70;;;;;;5076582;28;20791;-76
2023/09/02 07:18:41;;;;;;;3.80;2.10;;;20.90;94.90;;;;;;5076474;28;20439;-76
2023/09/02 07:21:09;;;;;;;3.80;2.30;;;21.30;94.00;;;;;;5075984;28;20800;-76
2023/09/02 07:23:36;;;;;;;3.77;2.03;;;21.70;93.70;;;;;;5063232;28;20822;-76
2023/09/02 07:26:05;;;;;;;4.17;2.40;;;22.20;93.20;;;;;;5056266;28;20792;-76
2023/09/02 07:28:33;;;;;;;4.30;2.17;;;22.50;90.50;;;;;;5056127;28;20516;-76
2023/09/02 07:31:06;;;;;;;3.47;2.13;;;22.90;89.20;;;;;;5056143;28;20421;-76
2023/09/02 07:33:33;;;;;;;3.60;2.00;;;23.30;84.40;;;;;;5068502;28;20757;-76
2023/09/02 07:36:07;;;;;;;3.70;2.10;;;24.20;83.80;;;;;;5075109;28;20444;-76
2023/09/02 07:38:34;;;;;;;3.90;2.03;;;26.40;76.00;;;;;;5075612;28;20451;-76
2023/09/02 07:41:02;;;;;;;5.93;2.53;;;29.20;65.30;;;;;;5075277;28;20914;-76
2023/09/02 07:43:30;;;;;;;4.47;2.50;;;31.80;55.80;;;;;;5063611;28;20441;-76
2023/09/02 07:45:57;;;;;;;5.23;2.63;;;34.10;48.40;;;;;;5055490;28;20441;-77
2023/09/02 07:48:24;;;;;;;5.03;2.03;;;36.10;40.70;;;;;;5055414;28;20440;-77
2023/09/02 07:50:52;;;;;;;4.00;1.80;;;38.10;38.20;;;;;;5055591;28;20441;-77
2023/09/02 07:53:19;;;;;;;5.47;2.30;;;39.60;32.80;;;;;;5064866;28;20502;-81
2023/09/02 07:55:46;;;;;;;3.53;2.03;;;41.00;30.30;;;;;;5075762;28;20491;-76
2023/09/02 07:58:15;;;;;;;3.10;1.70;;;42.30;28.00;;;;;;5075268;28;20956;-77
2023/09/02 08:00:43;;;;;;;4.30;2.10;;;43.50;26.50;;;;;;5075211;28;20529;-78
2023/09/02 08:03:10;;;;;;;6.77;1.70;;;44.60;25.70;;;;;;5065816;28;20514;-77
2023/09/02 08:05:39;;;;;;;3.83;2.40;;;45.50;23.50;;;;;;5054931;28;20806;-79
2023/09/02 08:08:07;;;;;;;3.07;1.63;;;46.20;22.10;;;;;;5055219;28;20831;-77
2023/09/02 08:10:39;;;;;;;3.60;2.10;;;47.00;21.50;;;;;;5054535;28;20437;-78
2023/09/02 08:13:06;;;;;;;3.53;1.80;;;47.50;21.60;;;;;;5060839;28;20471;-79
2023/09/02 08:15:33;;;;;;;2.77;1.73;;;48.30;20.90;;;;;;5074744;28;20433;-78
2023/09/02 08:18:02;;;;;;;4.80;1.90;;;48.70;19.40;;;;;;5074783;28;20800;-78
2023/09/02 08:20:30;;;;;;;3.40;2.10;;;49.10;19.50;;;;;;5074543;28;20865;-81
2023/09/02 08:22:57;;;;;;;3.27;1.57;;;49.80;19.40;;;;;;5069785;28;20555;-77
2023/09/02 08:25:23;;;;;;;2.67;1.47;;;50.30;18.40;;;;;;5072911;28;20921;-77
2023/09/02 08:27:51;;;;;;;3.67;1.73;;;50.80;17.80;;;;;;5074645;28;20444;-77
2023/09/02 08:30:18;;;;;;;3.00;1.80;;;51.10;17.30;;;;;;5074056;28;20859;-78
2023/09/02 08:32:45;;;;;;;4.70;2.33;;;51.40;17.00;;;;;;5071613;28;20535;-78
2023/09/02 08:35:13;;;;;;;3.83;2.37;;;51.70;16.20;;;;;;5054053;28;20433;-78
2023/09/02 08:37:40;;;;;;;3.93;2.43;;;51.80;16.40;;;;;;5054529;28;20445;-77
2023/09/02 08:40:08;;;;;;;3.67;2.07;;;52.30;16.80;;;;;;5054274;28;20484;-77
2023/09/02 08:42:36;;;;;;;2.90;1.43;;;52.80;16.30;;;;;;5071649;28;20437;-78
2023/09/02 08:45:11;;;;;;;3.20;2.40;;;53.10;16.00;;;;;;5055971;28;20506;-78
2023/09/02 08:47:40;;;;;;;2.90;1.90;;;53.40;15.40;;;;;;5057386;28;20501;-77
2023/09/02 08:50:09;;;;;;;2.83;1.73;;;53.80;14.90;;;;;;5073963;28;20484;-78
2023/09/02 08:52:40;;;;;;;5.20;2.10;;;54.20;14.30;;;;;;5073993;28;20460;-77
2023/09/02 08:55:09;;;;;;;3.33;2.00;;;54.30;13.90;;;;;;5073778;28;20424;-78
2023/09/02 08:57:38;;;;;;;2.70;1.80;;;54.60;14.00;;;;;;5073797;28;20868;-78
2023/09/02 09:00:06;;;;;;;3.00;1.80;;;54.90;14.40;;;;;;5074331;28;20514;-78
2023/09/02 09:02:37;;;;;;;4.63;1.57;;;55.30;13.60;;;;;;5073073;28;21010;-78
2023/09/02 09:05:06;;;;;;;4.70;1.93;;;55.30;13.20;;;;;;5073393;28;20452;-79
2023/09/02 09:07:33;;;;;;;3.13;1.77;;;55.10;13.40;;;;;;5071667;28;20440;-78
2023/09/02 09:10:03;;;;;;;3.83;1.60;;;55.30;13.10;;;;;;5053693;28;20823;-78
2023/09/02 09:12:33;;;;;;;4.33;2.00;;;55.40;13.50;;;;;;5050639;28;20449;-78
2023/09/02 09:15:02;;;;;;;2.70;1.77;;;55.60;13.70;;;;;;5053034;28;20445;-78
2023/09/02 09:17:30;;;;;;;3.23;1.80;;;55.90;12.60;;;;;;5057446;28;20445;-78
2023/09/02 09:19:59;;;;;;;4.07;1.90;;;56.30;12.60;;;;;;5073348;28;20447;-78
2023/09/02 09:22:26;;;;;;;4.50;2.07;;;56.60;13.00;;;;;;5060437;28;20807;-78
2023/09/02 09:24:54;;;;;;;3.23;1.83;;;56.90;12.90;;;;;;5053113;28;20476;-78
2023/09/02 09:27:22;;;;;;;6.23;2.07;;;57.10;12.30;;;;;;5054987;28;20430;-79
2023/09/02 09:29:50;;;;;;;2.90;1.60;;;57.20;12.00;;;;;;5067105;28;20474;-79
2023/09/02 09:32:19;;;;;;;3.07;1.80;;;57.20;12.20;;;;;;5071725;28;20437;-76
2023/09/02 09:34:46;;;;;;;2.97;1.77;;;56.90;12.70;;;;;;5066322;28;20535;-76
2023/09/02 09:37:14;;;;;;;2.30;1.60;;;56.90;12.50;;;;;;5072940;28;20517;-76
2023/09/02 09:39:42;;;;;;;2.60;1.77;;;57.20;12.60;;;;;;5073113;28;20459;-76
2023/09/02 09:42:11;;;;;;;3.73;1.60;;;57.50;12.20;;;;;;5072756;28;20983;-76
2023/09/02 09:44:52;;;;;;;2.43;1.80;;;57.40;12.30;;;;;;5058270;28;20448;-76
2023/09/02 09:47:20;;;;;;;2.50;1.60;;;57.20;12.30;;;;;;5052749;28;20501;-76
2023/09/02 09:49:49;;;;;;;3.57;2.17;;;57.10;12.00;;;;;;5052520;28;20978;-76
2023/09/02 09:52:17;;;;;;;2.80;1.93;;;57.20;12.20;;;;;;5052674;28;20946;-76
2023/09/02 09:54:47;;;;;;;2.77;1.80;;;57.50;12.10;;;;;;5052353;28;20429;-76
2023/09/02 09:57:17;;;;;;;3.30;2.03;;;57.50;11.70;;;;;;5053785;28;20872;-76
2023/09/02 09:59:55;;;;;;;2.73;2.00;;;57.70;12.20;;;;;;5072413;28;20463;-76
2023/09/02 10:02:27;;;;;;;3.43;2.17;;;57.90;11.40;;;;;;5072566;28;20933;-76
2023/09/02 10:04:55;;;;;;;2.83;1.90;;;57.70;11.90;;;;;;5072072;28;20891;-76
2023/09/02 10:07:25;;;;;;;3.27;1.80;;;57.60;12.30;;;;;;5070012;28;20456;-77
2023/09/02 10:09:57;;;;;;;3.47;2.13;;;57.50;11.70;;;;;;5055916;28;20476;-76
2023/09/02 10:12:24;;;;;;;3.13;1.73;;;57.40;11.40;;;;;;5072134;28;20424;-76
2023/09/02 10:14:51;;;;;;;3.17;2.23;;;57.30;11.70;;;;;;5071804;28;20527;-77
2023/09/02 10:17:21;;;;;;;3.67;2.00;;;57.40;11.50;;;;;;5063780;28;20511;-77
2023/09/02 10:19:48;;;;;;;2.80;1.90;;;57.70;11.60;;;;;;5036803;28;21232;-77
2023/09/02 10:22:18;;;;;;;3.23;2.47;;;57.90;11.40;;;;;;5062641;28;20464;-76
2023/09/02 10:24:52;;;;;;;3.40;1.83;;;58.00;11.20;;;;;;5052548;28;20433;-76
2023/09/02 10:27:23;;;;;;;3.83;1.83;;;58.00;11.70;;;;;;5052664;28;20432;-76
2023/09/02 10:29:54;;;;;;;4.60;2.27;;;58.00;11.00;;;;;;5052555;28;20492;-77
2023/09/02 10:32:26;;;;;;;2.80;1.57;;;58.10;11.20;;;;;;5052339;28;20426;-76
2023/09/02 10:35:01;;;;;;;2.77;1.70;;;58.30;11.70;;;;;;5052398;28;20424;-77
2023/09/02 10:37:38;;;;;;;3.60;2.27;;;58.20;10.80;;;;;;5052293;28;20470;-77
2023/09/02 10:40:06;;;;;;;3.80;1.83;;;57.20;11.10;;;;;;5052249;28;20849;-77
2023/09/02 10:42:35;;;;;;;3.10;1.80;;;55.60;12.00;;;;;;5052016;28;20479;-78
2023/09/02 10:45:04;;;;;;;3.60;1.87;;;54.90;12.30;;;;;;5051839;28;20465;-77
2023/09/02 10:47:33;;;;;;;3.30;2.10;;;54.80;12.90;;;;;;5052031;28;20449;-77
2023/09/02 10:50:01;;;;;;;3.83;2.00;;;54.60;12.10;;;;;;5051922;28;20527;-77
2023/09/02 10:52:28;;;;;;;2.50;1.70;;;53.70;12.60;;;;;;5052108;28;20429;-77
2023/09/02 10:55:05;;;;;;;3.00;1.70;;;53.80;12.40;;;;;;5051742;28;20469;-77
2023/09/02 10:57:33;;;;;;;4.40;2.20;;;54.40;12.70;;;;;;5035601;28;20535;-77
2023/09/02 11:00:17;;;;;;;5.40;1.97;;;55.20;12.40;;;;;;5064283;28;20520;-77
2023/09/02 11:02:47;;;;;;;3.50;1.83;;;55.30;11.70;;;;;;5052142;28;20831;-77
2023/09/02 11:05:16;;;;;;;3.87;1.87;;;55.00;12.10;;;;;;5052093;28;20459;-77
2023/09/02 11:07:43;;;;;;;3.10;1.80;;;54.70;12.50;;;;;;5051787;28;20443;-77
2023/09/02 11:10:11;;;;;;;3.50;2.10;;;54.30;12.90;;;;;;5052124;28;20524;-77
2023/09/02 11:13:05;;;;;;;3.97;2.00;;;53.60;12.90;;;;;;5038864;28;20426;-77
2023/09/02 11:15:33;;;;;;;2.80;1.77;;;52.80;13.60;;;;;;5051335;28;20441;-77
2023/09/02 11:18:28;;;;;;;3.73;2.30;;;52.00;13.40;;;;;;5054225;28;20506;-77
2023/09/02 11:20:58;;;;;;;3.80;2.40;;;51.40;13.50;;;;;;5054174;28;20529;-77
2023/09/02 11:23:26;;;;;;;3.00;1.70;;;50.70;14.00;;;;;;5055406;28;20907;-76
2023/09/02 11:26:04;;;;;;;3.70;2.20;;;49.80;14.80;;;;;;5055621;28;20437;-76
2023/09/02 11:28:31;;;;;;;4.93;2.13;;;48.80;14.80;;;;;;5055659;28;20428;-77
2023/09/02 11:31:09;;;;;;;2.80;1.63;;;48.00;14.50;;;;;;5055174;28;20464;-78
2023/09/02 11:33:39;;;;;;;6.07;3.47;;;47.30;14.80;;;;;;5055708;28;20530;-76
2023/09/02 11:36:07;;;;;;;2.73;1.83;;;46.60;15.00;;;;;;5055525;28;20428;-77
2023/09/02 11:38:35;;;;;;;3.20;2.20;;;45.90;15.20;;;;;;5055537;28;20430;-76
2023/09/02 11:41:03;;;;;;;3.70;1.87;;;45.20;16.50;;;;;;5055472;28;20495;-76
2023/09/02 11:43:32;;;;;;;3.50;2.23;;;44.40;17.00;;;;;;5055463;28;20469;-76
2023/09/02 11:46:00;;;;;;;4.27;2.03;;;43.70;16.90;;;;;;5055526;28;20526;-77
2023/09/02 11:48:27;;;;;;;4.37;2.00;;;43.10;17.90;;;;;;5055132;28;20484;-76
2023/09/02 11:50:58;;;;;;;4.97;2.50;;;42.40;19.10;;;;;;5055148;28;20515;-77
2023/09/02 11:53:27;;;;;;;3.30;1.70;;;41.90;19.90;;;;;;5054952;28;20500;-77
2023/09/02 11:55:54;;;;;;;4.00;1.70;;;41.40;20.20;;;;;;5054960;28;20434;-76
2023/09/02 11:58:21;;;;;;;4.30;1.90;;;40.80;19.00;;;;;;5054926;28;20481;-76
2023/09/02 12:00:48;;;;;;;3.20;1.70;;;40.30;20.90;;;;;;5055215;28;20437;-76
2023/09/02 12:03:27;;;;;;;3.63;1.90;;;39.90;21.40;;;;;;5054531;28;20779;-76
2023/09/02 12:05:59;;;;;;;3.00;1.67;;;39.40;21.90;;;;;;5054740;28;20425;-76
2023/09/02 12:08:27;;;;;;;4.73;2.17;;;39.00;21.60;;;;;;5054539;28;20421;-77
2023/09/02 12:10:55;;;;;;;3.17;1.97;;;38.50;22.40;;;;;;5054646;28;20480;-76
2023/09/02 12:13:22;;;;;;;2.80;1.63;;;38.00;23.40;;;;;;5054556;28;20441;-78
2023/09/02 12:15:51;;;;;;;7.13;1.70;;;37.60;23.70;;;;;;5054842;28;20436;-78
2023/09/02 12:18:19;;;;;;;3.43;1.83;;;37.20;24.10;;;;;;5048103;28;20437;-78
2023/09/02 12:20:46;;;;;;;3.10;1.93;;;37.00;24.60;;;;;;5053104;28;20435;-78
2023/09/02 12:23:16;;;;;;;2.73;1.60;;;36.70;24.40;;;;;;5053341;28;20423;-78
2023/09/02 12:26:01;;;;;;;2.70;1.40;;;36.40;24.60;;;;;;5052825;28;20492;-81
2023/09/02 12:28:29;;;;;;;3.63;2.07;;;36.20;24.70;;;;;;5062305;28;20423;-78
2023/09/02 12:30:56;;;;;;;3.43;1.77;;;35.70;25.90;;;;;;5054144;28;20483;-78
2023/09/02 12:33:24;;;;;;;4.10;2.00;;;35.40;26.60;;;;;;5054167;28;20431;-78
2023/09/02 12:35:51;;;;;;;3.50;1.90;;;35.20;27.40;;;;;;5054368;28;20442;-78
2023/09/02 12:38:20;;;;;;;2.63;1.43;;;35.00;28.20;;;;;;5054037;28;20425;-78
2023/09/02 12:40:53;;;;;;;3.10;1.50;;;34.80;28.20;;;;;;5054049;28;20491;-78
2023/09/02 12:43:26;;;;;;;4.50;2.30;;;34.60;27.30;;;;;;5053956;28;20453;-78
2023/09/02 12:45:55;;;;;;;3.80;1.70;;;34.30;28.20;;;;;;5053815;28;20966;-78
2023/09/02 12:48:23;;;;;;;3.67;2.00;;;34.10;29.00;;;;;;5053765;28;20499;-78
2023/09/02 12:50:50;;;;;;;3.20;1.70;;;33.90;28.60;;;;;;5054061;28;20477;-78
2023/09/02 12:53:19;;;;;;;4.90;2.80;;;33.80;28.40;;;;;;5054405;28;20440;-79